sensor_id;sensor_type;location;lat;lon;timestamp;P1;durP1;ratioP1;P2;durP2;ratioP2
65182;SDS011;51771;51.068;-1.780;2023-04-26T00:00:08;5.93;;;2.15;;
65182;SDS011;51771;51.068;-1.780;2023-04-26T00:02:35;6.93;;;2.03;;
65182;SDS011;51771;51.068;-1.780;2023-04-26T00:05:01;10.20;;;2.40;;
65182;SDS011;51771;51.068;-1.780;2023-04-26T00:07:28;7.57;;;2.33;;
65182;SDS011;51771;51.068;-1.780;2023-04-26T00:09:54;6.38;;;2.15;;
65182;SDS011;51771;51.068;-1.780;2023-04-26T00:12:19;6.13;;;2.03;;
65182;SDS011;51771;51.068;-1.780;2023-04-26T00:14:45;6.53;;;2.05;;
65182;SDS011;51771;51.068;-1.780;2023-04-26T00:17:11;5.32;;;1.77;;
65182;SDS011;51771;51.068;-1.780;2023-04-26T00:19:36;6.07;;;2.15;;
65182;SDS011;51771;51.068;-1.780;2023-04-26T00:22:02;6.10;;;2.05;;
65182;SDS011;51771;51.068;-1.780;2023-04-26T00:24:29;8.13;;;1.92;;
65182;SDS011;51771;51.068;-1.780;2023-04-26T00:26:55;6.95;;;1.98;;
65182;SDS011;51771;51.068;-1.780;2023-04-26T00:29:20;4.88;;;2.10;;
65182;SDS011;51771;51.068;-1.780;2023-04-26T00:31:46;6.72;;;1.85;;
65182;SDS011;51771;51.068;-1.780;2023-04-26T00:34:11;7.97;;;2.15;;
65182;SDS011;51771;51.068;-1.780;2023-04-26T00:36:36;7.33;;;1.97;;
65182;SDS011;51771;51.068;-1.780;2023-04-26T00:39:02;5.00;;;1.90;;
65182;SDS011;51771;51.068;-1.780;2023-04-26T00:41:27;7.60;;;2.35;;
65182;SDS011;51771;51.068;-1.780;2023-04-26T00:43:52;5.53;;;1.40;;
65182;SDS011;51771;51.068;-1.780;2023-04-26T00:46:18;5.60;;;2.00;;
65182;SDS011;51771;51.068;-1.780;2023-04-26T00:48:43;5.97;;;2.03;;
65182;SDS011;51771;51.068;-1.780;2023-04-26T00:51:08;6.53;;;1.70;;
65182;SDS011;51771;51.068;-1.780;2023-04-26T00:53:33;6.10;;;1.80;;
65182;SDS011;51771;51.068;-1.780;2023-04-26T00:55:59;5.10;;;1.80;;
65182;SDS011;51771;51.068;-1.780;2023-04-26T00:58:25;6.15;;;1.55;;
65182;SDS011;51771;51.068;-1.780;2023-04-26T01:00:50;5.90;;;1.50;;
65182;SDS011;51771;51.068;-1.780;2023-04-26T01:03:15;9.38;;;2.17;;
65182;SDS011;51771;51.068;-1.780;2023-04-26T01:05:41;6.43;;;1.90;;
65182;SDS011;51771;51.068;-1.780;2023-04-26T01:08:06;7.85;;;2.15;;
65182;SDS011;51771;51.068;-1.780;2023-04-26T01:10:32;10.43;;;2.25;;
65182;SDS011;51771;51.068;-1.780;2023-04-26T01:12:58;4.78;;;1.88;;
65182;SDS011;51771;51.068;-1.780;2023-04-26T01:15:24;4.63;;;1.83;;
65182;SDS011;51771;51.068;-1.780;2023-04-26T01:17:51;9.02;;;1.73;;
65182;SDS011;51771;51.068;-1.780;2023-04-26T01:20:17;8.98;;;2.03;;
65182;SDS011;51771;51.068;-1.780;2023-04-26T01:22:42;6.30;;;1.77;;
65182;SDS011;51771;51.068;-1.780;2023-04-26T01:25:07;6.80;;;1.98;;
65182;SDS011;51771;51.068;-1.780;2023-04-26T01:27:36;7.05;;;1.90;;
65182;SDS011;51771;51.068;-1.780;2023-04-26T01:30:01;5.78;;;1.70;;
65182;SDS011;51771;51.068;-1.780;2023-04-26T01:32:27;8.75;;;1.65;;
65182;SDS011;51771;51.068;-1.780;2023-04-26T01:34:52;4.70;;;1.77;;
65182;SDS011;51771;51.068;-1.780;2023-04-26T01:37:17;5.18;;;1.60;;
65182;SDS011;51771;51.068;-1.780;2023-04-26T01:39:42;5.30;;;1.90;;
65182;SDS011;51771;51.068;-1.780;2023-04-26T01:42:08;8.03;;;2.23;;
65182;SDS011;51771;51.068;-1.780;2023-04-26T01:44:33;5.90;;;1.80;;
65182;SDS011;51771;51.068;-1.780;2023-04-26T01:46:58;4.30;;;2.13;;
65182;SDS011;51771;51.068;-1.780;2023-04-26T01:49:23;7.32;;;2.20;;
65182;SDS011;51771;51.068;-1.780;2023-04-26T01:51:49;5.10;;;1.88;;
65182;SDS011;51771;51.068;-1.780;2023-04-26T01:54:14;5.65;;;1.75;;
65182;SDS011;51771;51.068;-1.780;2023-04-26T01:56:39;5.55;;;1.75;;
65182;SDS011;51771;51.068;-1.780;2023-04-26T01:59:05;4.18;;;1.55;;
65182;SDS011;51771;51.068;-1.780;2023-04-26T02:01:30;5.30;;;1.83;;
65182;SDS011;51771;51.068;-1.780;2023-04-26T02:03:56;6.07;;;1.85;;
65182;SDS011;51771;51.068;-1.780;2023-04-26T02:06:21;5.75;;;1.80;;
65182;SDS011;51771;51.068;-1.780;2023-04-26T02:08:47;11.00;;;2.30;;
65182;SDS011;51771;51.068;-1.780;2023-04-26T02:11:13;6.25;;;1.75;;
65182;SDS011;51771;51.068;-1.780;2023-04-26T02:13:38;5.40;;;1.80;;
65182;SDS011;51771;51.068;-1.780;2023-04-26T02:16:03;5.38;;;1.90;;
65182;SDS011;51771;51.068;-1.780;2023-04-26T02:18:29;6.75;;;2.40;;
65182;SDS011;51771;51.068;-1.780;2023-04-26T02:20:54;7.03;;;2.00;;
65182;SDS011;51771;51.068;-1.780;2023-04-26T02:23:19;7.43;;;1.67;;
65182;SDS011;51771;51.068;-1.780;2023-04-26T02:25:45;5.03;;;1.55;;
65182;SDS011;51771;51.068;-1.780;2023-04-26T02:28:11;8.40;;;2.25;;
65182;SDS011;51771;51.068;-1.780;2023-04-26T02:30:36;10.80;;;2.85;;
65182;SDS011;51771;51.068;-1.780;2023-04-26T02:33:02;6.78;;;1.75;;
65182;SDS011;51771;51.068;-1.780;2023-04-26T02:35:27;7.60;;;2.20;;
65182;SDS011;51771;51.068;-1.780;2023-04-26T02:37:52;5.03;;;1.65;;
65182;SDS011;51771;51.068;-1.780;2023-04-26T02:40:18;10.40;;;1.88;;
65182;SDS011;51771;51.068;-1.780;2023-04-26T02:42:43;4.70;;;1.80;;
65182;SDS011;51771;51.068;-1.780;2023-04-26T02:45:09;4.22;;;1.52;;
65182;SDS011;51771;51.068;-1.780;2023-04-26T02:47:34;5.30;;;2.08;;
65182;SDS011;51771;51.068;-1.780;2023-04-26T02:50:04;5.07;;;1.67;;
65182;SDS011;51771;51.068;-1.780;2023-04-26T02:52:29;8.57;;;1.45;;
65182;SDS011;51771;51.068;-1.780;2023-04-26T02:54:55;5.60;;;1.77;;
65182;SDS011;51771;51.068;-1.780;2023-04-26T02:57:20;4.57;;;1.58;;
65182;SDS011;51771;51.068;-1.780;2023-04-26T02:59:45;8.27;;;1.83;;
65182;SDS011;51771;51.068;-1.780;2023-04-26T03:02:11;6.97;;;1.70;;
65182;SDS011;51771;51.068;-1.780;2023-04-26T03:04:36;4.90;;;1.52;;
65182;SDS011;51771;51.068;-1.780;2023-04-26T03:07:02;4.70;;;1.75;;
65182;SDS011;51771;51.068;-1.780;2023-04-26T03:09:27;4.10;;;1.15;;
65182;SDS011;51771;51.068;-1.780;2023-04-26T03:11:53;6.50;;;1.80;;
65182;SDS011;51771;51.068;-1.780;2023-04-26T03:14:18;9.87;;;2.13;;
65182;SDS011;51771;51.068;-1.780;2023-04-26T03:16:43;5.67;;;1.80;;
65182;SDS011;51771;51.068;-1.780;2023-04-26T03:19:08;5.67;;;1.63;;
65182;SDS011;51771;51.068;-1.780;2023-04-26T03:21:34;8.13;;;2.55;;
65182;SDS011;51771;51.068;-1.780;2023-04-26T03:23:59;5.85;;;2.08;;
65182;SDS011;51771;51.068;-1.780;2023-04-26T03:26:24;6.00;;;2.25;;
65182;SDS011;51771;51.068;-1.780;2023-04-26T03:28:50;6.65;;;1.75;;
65182;SDS011;51771;51.068;-1.780;2023-04-26T03:31:15;8.50;;;2.57;;
65182;SDS011;51771;51.068;-1.780;2023-04-26T03:33:40;7.30;;;2.60;;
65182;SDS011;51771;51.068;-1.780;2023-04-26T03:36:06;5.20;;;2.00;;
65182;SDS011;51771;51.068;-1.780;2023-04-26T03:38:31;7.10;;;2.05;;
65182;SDS011;51771;51.068;-1.780;2023-04-26T03:40:56;9.07;;;2.28;;
65182;SDS011;51771;51.068;-1.780;2023-04-26T03:43:21;8.63;;;2.22;;
65182;SDS011;51771;51.068;-1.780;2023-04-26T03:45:48;7.22;;;2.10;;
65182;SDS011;51771;51.068;-1.780;2023-04-26T03:48:13;5.65;;;2.13;;
65182;SDS011;51771;51.068;-1.780;2023-04-26T03:50:38;7.30;;;2.72;;
65182;SDS011;51771;51.068;-1.780;2023-04-26T03:53:04;6.15;;;1.60;;
65182;SDS011;51771;51.068;-1.780;2023-04-26T03:55:29;9.70;;;2.10;;
65182;SDS011;51771;51.068;-1.780;2023-04-26T03:57:54;5.88;;;1.70;;
65182;SDS011;51771;51.068;-1.780;2023-04-26T04:00:19;9.57;;;1.92;;
65182;SDS011;51771;51.068;-1.780;2023-04-26T04:02:45;4.93;;;2.13;;
65182;SDS011;51771;51.068;-1.780;2023-04-26T04:05:10;6.72;;;2.30;;
65182;SDS011;51771;51.068;-1.780;2023-04-26T04:07:36;5.65;;;2.08;;
65182;SDS011;51771;51.068;-1.780;2023-04-26T04:10:01;7.75;;;1.90;;
65182;SDS011;51771;51.068;-1.780;2023-04-26T04:12:26;4.55;;;1.70;;
65182;SDS011;51771;51.068;-1.780;2023-04-26T04:14:51;5.35;;;2.05;;
65182;SDS011;51771;51.068;-1.780;2023-04-26T04:17:20;7.97;;;1.73;;
65182;SDS011;51771;51.068;-1.780;2023-04-26T04:19:45;4.93;;;1.58;;
65182;SDS011;51771;51.068;-1.780;2023-04-26T04:22:10;6.00;;;1.73;;
65182;SDS011;51771;51.068;-1.780;2023-04-26T04:24:36;8.05;;;2.00;;
65182;SDS011;51771;51.068;-1.780;2023-04-26T04:27:01;4.68;;;1.58;;
65182;SDS011;51771;51.068;-1.780;2023-04-26T04:29:27;6.30;;;1.52;;
65182;SDS011;51771;51.068;-1.780;2023-04-26T04:31:52;9.73;;;1.67;;
65182;SDS011;51771;51.068;-1.780;2023-04-26T04:34:18;5.18;;;1.50;;
65182;SDS011;51771;51.068;-1.780;2023-04-26T04:36:45;7.68;;;1.77;;
65182;SDS011;51771;51.068;-1.780;2023-04-26T04:39:11;6.35;;;1.73;;
65182;SDS011;51771;51.068;-1.780;2023-04-26T04:41:37;5.13;;;1.60;;
65182;SDS011;51771;51.068;-1.780;2023-04-26T04:44:03;5.05;;;1.70;;
65182;SDS011;51771;51.068;-1.780;2023-04-26T04:46:28;5.13;;;1.70;;
65182;SDS011;51771;51.068;-1.780;2023-04-26T04:48:53;8.70;;;2.17;;
65182;SDS011;51771;51.068;-1.780;2023-04-26T04:51:19;6.03;;;1.80;;
65182;SDS011;51771;51.068;-1.780;2023-04-26T04:53:44;7.45;;;3.75;;
65182;SDS011;51771;51.068;-1.780;2023-04-26T04:56:09;8.93;;;1.80;;
65182;SDS011;51771;51.068;-1.780;2023-04-26T04:58:34;12.40;;;2.03;;
65182;SDS011;51771;51.068;-1.780;2023-04-26T05:01:00;7.95;;;1.80;;
65182;SDS011;51771;51.068;-1.780;2023-04-26T05:03:25;4.95;;;1.70;;
65182;SDS011;51771;51.068;-1.780;2023-04-26T05:05:50;10.40;;;1.90;;
65182;SDS011;51771;51.068;-1.780;2023-04-26T05:08:15;5.23;;;1.57;;
65182;SDS011;51771;51.068;-1.780;2023-04-26T05:10:41;4.38;;;1.50;;
65182;SDS011;51771;51.068;-1.780;2023-04-26T05:13:06;9.37;;;1.93;;
65182;SDS011;51771;51.068;-1.780;2023-04-26T05:15:31;7.20;;;1.57;;
65182;SDS011;51771;51.068;-1.780;2023-04-26T05:17:57;5.47;;;2.00;;
65182;SDS011;51771;51.068;-1.780;2023-04-26T05:20:23;6.78;;;1.88;;
65182;SDS011;51771;51.068;-1.780;2023-04-26T05:22:48;7.35;;;1.67;;
65182;SDS011;51771;51.068;-1.780;2023-04-26T05:25:13;5.90;;;1.30;;
65182;SDS011;51771;51.068;-1.780;2023-04-26T05:27:39;9.70;;;1.65;;
65182;SDS011;51771;51.068;-1.780;2023-04-26T05:30:05;4.78;;;1.58;;
65182;SDS011;51771;51.068;-1.780;2023-04-26T05:32:30;7.28;;;1.40;;
65182;SDS011;51771;51.068;-1.780;2023-04-26T05:34:56;4.25;;;1.75;;
65182;SDS011;51771;51.068;-1.780;2023-04-26T05:37:21;5.57;;;2.00;;
65182;SDS011;51771;51.068;-1.780;2023-04-26T05:39:46;6.28;;;1.65;;
65182;SDS011;51771;51.068;-1.780;2023-04-26T05:42:13;7.55;;;1.58;;
65182;SDS011;51771;51.068;-1.780;2023-04-26T05:44:38;8.70;;;2.17;;
65182;SDS011;51771;51.068;-1.780;2023-04-26T05:47:03;3.93;;;1.53;;
65182;SDS011;51771;51.068;-1.780;2023-04-26T05:49:28;4.88;;;1.73;;
65182;SDS011;51771;51.068;-1.780;2023-04-26T05:51:53;7.87;;;1.93;;
65182;SDS011;51771;51.068;-1.780;2023-04-26T05:54:19;5.10;;;1.58;;
65182;SDS011;51771;51.068;-1.780;2023-04-26T05:56:45;9.40;;;2.30;;
65182;SDS011;51771;51.068;-1.780;2023-04-26T05:59:10;4.10;;;1.55;;
65182;SDS011;51771;51.068;-1.780;2023-04-26T06:01:36;8.45;;;1.85;;
65182;SDS011;51771;51.068;-1.780;2023-04-26T06:04:02;10.43;;;3.10;;
65182;SDS011;51771;51.068;-1.780;2023-04-26T06:06:27;8.85;;;2.10;;
65182;SDS011;51771;51.068;-1.780;2023-04-26T06:08:52;9.23;;;2.00;;
65182;SDS011;51771;51.068;-1.780;2023-04-26T06:11:17;8.30;;;1.67;;
65182;SDS011;51771;51.068;-1.780;2023-04-26T06:13:43;6.40;;;1.80;;
65182;SDS011;51771;51.068;-1.780;2023-04-26T06:16:08;5.50;;;1.63;;
65182;SDS011;51771;51.068;-1.780;2023-04-26T06:18:33;7.68;;;2.30;;
65182;SDS011;51771;51.068;-1.780;2023-04-26T06:20:59;6.18;;;1.95;;
65182;SDS011;51771;51.068;-1.780;2023-04-26T06:23:24;5.72;;;1.60;;
65182;SDS011;51771;51.068;-1.780;2023-04-26T06:25:49;8.55;;;2.05;;
65182;SDS011;51771;51.068;-1.780;2023-04-26T06:28:15;7.53;;;2.38;;
65182;SDS011;51771;51.068;-1.780;2023-04-26T06:30:41;4.90;;;1.20;;
65182;SDS011;51771;51.068;-1.780;2023-04-26T06:33:06;11.50;;;1.92;;
65182;SDS011;51771;51.068;-1.780;2023-04-26T06:35:32;4.32;;;1.60;;
65182;SDS011;51771;51.068;-1.780;2023-04-26T06:38:03;8.00;;;1.85;;
65182;SDS011;51771;51.068;-1.780;2023-04-26T06:40:28;7.37;;;1.67;;
65182;SDS011;51771;51.068;-1.780;2023-04-26T06:42:53;6.82;;;1.67;;
65182;SDS011;51771;51.068;-1.780;2023-04-26T06:45:19;6.75;;;2.00;;
65182;SDS011;51771;51.068;-1.780;2023-04-26T06:50:13;10.68;;;2.00;;
65182;SDS011;51771;51.068;-1.780;2023-04-26T06:52:38;9.57;;;2.05;;
65182;SDS011;51771;51.068;-1.780;2023-04-26T06:55:04;4.85;;;1.83;;
65182;SDS011;51771;51.068;-1.780;2023-04-26T06:57:29;5.82;;;1.60;;
65182;SDS011;51771;51.068;-1.780;2023-04-26T06:59:54;6.47;;;1.83;;
65182;SDS011;51771;51.068;-1.780;2023-04-26T07:02:20;6.80;;;1.50;;
65182;SDS011;51771;51.068;-1.780;2023-04-26T07:04:47;6.38;;;1.65;;
65182;SDS011;51771;51.068;-1.780;2023-04-26T07:07:12;5.82;;;1.30;;
65182;SDS011;51771;51.068;-1.780;2023-04-26T07:09:38;6.65;;;2.05;;
65182;SDS011;51771;51.068;-1.780;2023-04-26T07:12:03;5.45;;;1.75;;
65182;SDS011;51771;51.068;-1.780;2023-04-26T07:14:29;6.10;;;2.10;;
65182;SDS011;51771;51.068;-1.780;2023-04-26T07:16:54;7.60;;;2.47;;
65182;SDS011;51771;51.068;-1.780;2023-04-26T07:19:20;7.10;;;2.33;;
65182;SDS011;51771;51.068;-1.780;2023-04-26T07:21:45;9.15;;;1.80;;
65182;SDS011;51771;51.068;-1.780;2023-04-26T07:24:10;5.90;;;1.90;;
65182;SDS011;51771;51.068;-1.780;2023-04-26T07:26:37;10.27;;;2.00;;
65182;SDS011;51771;51.068;-1.780;2023-04-26T07:29:02;6.68;;;1.85;;
65182;SDS011;51771;51.068;-1.780;2023-04-26T07:31:29;5.13;;;1.80;;
65182;SDS011;51771;51.068;-1.780;2023-04-26T07:33:54;8.48;;;1.85;;
65182;SDS011;51771;51.068;-1.780;2023-04-26T07:36:19;9.38;;;2.17;;
65182;SDS011;51771;51.068;-1.780;2023-04-26T07:38:45;5.55;;;2.17;;
65182;SDS011;51771;51.068;-1.780;2023-04-26T07:41:10;7.07;;;1.83;;
65182;SDS011;51771;51.068;-1.780;2023-04-26T07:43:36;8.07;;;1.98;;
65182;SDS011;51771;51.068;-1.780;2023-04-26T07:46:02;9.93;;;1.83;;
65182;SDS011;51771;51.068;-1.780;2023-04-26T07:48:27;8.07;;;2.00;;
65182;SDS011;51771;51.068;-1.780;2023-04-26T07:50:53;16.58;;;2.40;;
65182;SDS011;51771;51.068;-1.780;2023-04-26T07:53:19;9.90;;;2.35;;
65182;SDS011;51771;51.068;-1.780;2023-04-26T07:55:45;9.77;;;2.00;;
65182;SDS011;51771;51.068;-1.780;2023-04-26T07:58:10;7.28;;;1.77;;
65182;SDS011;51771;51.068;-1.780;2023-04-26T08:00:38;7.80;;;1.90;;
65182;SDS011;51771;51.068;-1.780;2023-04-26T08:03:04;5.65;;;1.83;;
65182;SDS011;51771;51.068;-1.780;2023-04-26T08:05:29;5.28;;;2.72;;
65182;SDS011;51771;51.068;-1.780;2023-04-26T08:07:55;8.23;;;2.20;;
65182;SDS011;51771;51.068;-1.780;2023-04-26T08:10:20;6.10;;;2.45;;
65182;SDS011;51771;51.068;-1.780;2023-04-26T08:12:45;8.32;;;2.47;;
65182;SDS011;51771;51.068;-1.780;2023-04-26T08:15:11;10.43;;;2.35;;
65182;SDS011;51771;51.068;-1.780;2023-04-26T08:17:36;7.32;;;1.80;;
65182;SDS011;51771;51.068;-1.780;2023-04-26T08:20:01;5.43;;;1.98;;
65182;SDS011;51771;51.068;-1.780;2023-04-26T08:22:29;8.10;;;2.47;;
65182;SDS011;51771;51.068;-1.780;2023-04-26T08:24:55;11.67;;;2.37;;
65182;SDS011;51771;51.068;-1.780;2023-04-26T08:27:20;8.98;;;2.10;;
65182;SDS011;51771;51.068;-1.780;2023-04-26T08:29:46;10.70;;;2.47;;
65182;SDS011;51771;51.068;-1.780;2023-04-26T08:32:11;11.18;;;2.60;;
65182;SDS011;51771;51.068;-1.780;2023-04-26T08:34:36;11.90;;;2.83;;
65182;SDS011;51771;51.068;-1.780;2023-04-26T08:37:02;11.68;;;2.45;;
65182;SDS011;51771;51.068;-1.780;2023-04-26T08:39:27;11.25;;;1.90;;
65182;SDS011;51771;51.068;-1.780;2023-04-26T08:41:53;12.57;;;2.50;;
65182;SDS011;51771;51.068;-1.780;2023-04-26T08:44:22;14.18;;;2.58;;
65182;SDS011;51771;51.068;-1.780;2023-04-26T08:46:55;9.77;;;2.53;;
65182;SDS011;51771;51.068;-1.780;2023-04-26T08:52:10;11.23;;;2.38;;
65182;SDS011;51771;51.068;-1.780;2023-04-26T08:54:37;10.00;;;2.42;;
65182;SDS011;51771;51.068;-1.780;2023-04-26T08:57:03;11.93;;;2.67;;
65182;SDS011;51771;51.068;-1.780;2023-04-26T08:59:37;12.35;;;3.08;;
65182;SDS011;51771;51.068;-1.780;2023-04-26T09:02:06;9.13;;;2.50;;
65182;SDS011;51771;51.068;-1.780;2023-04-26T09:04:31;11.55;;;2.88;;
65182;SDS011;51771;51.068;-1.780;2023-04-26T09:06:59;6.53;;;2.20;;
65182;SDS011;51771;51.068;-1.780;2023-04-26T09:09:24;8.27;;;2.28;;
65182;SDS011;51771;51.068;-1.780;2023-04-26T09:11:52;15.45;;;3.20;;
65182;SDS011;51771;51.068;-1.780;2023-04-26T09:14:18;9.00;;;2.97;;
65182;SDS011;51771;51.068;-1.780;2023-04-26T09:16:43;6.97;;;2.05;;
65182;SDS011;51771;51.068;-1.780;2023-04-26T09:19:09;9.00;;;2.30;;
65182;SDS011;51771;51.068;-1.780;2023-04-26T09:21:39;8.73;;;2.83;;
65182;SDS011;51771;51.068;-1.780;2023-04-26T09:24:05;10.45;;;3.40;;
65182;SDS011;51771;51.068;-1.780;2023-04-26T09:26:31;8.73;;;3.17;;
65182;SDS011;51771;51.068;-1.780;2023-04-26T09:29:12;22.05;;;3.33;;
65182;SDS011;51771;51.068;-1.780;2023-04-26T09:31:39;11.30;;;2.95;;
65182;SDS011;51771;51.068;-1.780;2023-04-26T09:34:04;14.23;;;3.03;;
65182;SDS011;51771;51.068;-1.780;2023-04-26T09:36:30;14.57;;;2.95;;
65182;SDS011;51771;51.068;-1.780;2023-04-26T09:38:56;11.20;;;2.72;;
65182;SDS011;51771;51.068;-1.780;2023-04-26T09:41:21;11.27;;;3.33;;
65182;SDS011;51771;51.068;-1.780;2023-04-26T09:43:48;9.52;;;3.08;;
65182;SDS011;51771;51.068;-1.780;2023-04-26T09:46:19;12.65;;;3.90;;
65182;SDS011;51771;51.068;-1.780;2023-04-26T09:48:46;9.57;;;2.70;;
65182;SDS011;51771;51.068;-1.780;2023-04-26T09:51:24;9.52;;;3.33;;
65182;SDS011;51771;51.068;-1.780;2023-04-26T09:53:49;11.05;;;3.08;;
65182;SDS011;51771;51.068;-1.780;2023-04-26T09:56:15;9.25;;;2.78;;
65182;SDS011;51771;51.068;-1.780;2023-04-26T09:58:57;11.25;;;2.70;;
65182;SDS011;51771;51.068;-1.780;2023-04-26T10:01:25;11.93;;;2.90;;
65182;SDS011;51771;51.068;-1.780;2023-04-26T10:03:52;12.55;;;2.75;;
65182;SDS011;51771;51.068;-1.780;2023-04-26T10:06:17;12.63;;;3.10;;
65182;SDS011;51771;51.068;-1.780;2023-04-26T10:08:43;7.82;;;2.97;;
65182;SDS011;51771;51.068;-1.780;2023-04-26T10:11:08;11.93;;;3.00;;
65182;SDS011;51771;51.068;-1.780;2023-04-26T10:13:37;10.80;;;3.78;;
65182;SDS011;51771;51.068;-1.780;2023-04-26T10:16:02;8.40;;;3.05;;
65182;SDS011;51771;51.068;-1.780;2023-04-26T10:18:31;12.52;;;3.40;;
65182;SDS011;51771;51.068;-1.780;2023-04-26T10:21:09;12.95;;;3.10;;
65182;SDS011;51771;51.068;-1.780;2023-04-26T10:23:35;12.48;;;2.83;;
65182;SDS011;51771;51.068;-1.780;2023-04-26T10:26:01;15.18;;;3.17;;
65182;SDS011;51771;51.068;-1.780;2023-04-26T10:29:12;11.38;;;2.78;;
65182;SDS011;51771;51.068;-1.780;2023-04-26T10:31:12;9.77;;;3.53;;
65182;SDS011;51771;51.068;-1.780;2023-04-26T10:33:38;11.52;;;3.00;;
65182;SDS011;51771;51.068;-1.780;2023-04-26T10:36:07;11.93;;;3.00;;
65182;SDS011;51771;51.068;-1.780;2023-04-26T10:38:33;14.68;;;3.67;;
65182;SDS011;51771;51.068;-1.780;2023-04-26T10:43:43;10.88;;;3.42;;
65182;SDS011;51771;51.068;-1.780;2023-04-26T10:48:52;11.40;;;3.17;;
65182;SDS011;51771;51.068;-1.780;2023-04-26T10:51:20;11.75;;;3.47;;
65182;SDS011;51771;51.068;-1.780;2023-04-26T10:58:48;9.57;;;2.60;;
65182;SDS011;51771;51.068;-1.780;2023-04-26T11:03:40;12.73;;;3.28;;
65182;SDS011;51771;51.068;-1.780;2023-04-26T11:06:06;10.63;;;3.13;;
65182;SDS011;51771;51.068;-1.780;2023-04-26T11:08:31;12.95;;;3.50;;
65182;SDS011;51771;51.068;-1.780;2023-04-26T11:13:32;10.68;;;3.75;;
65182;SDS011;51771;51.068;-1.780;2023-04-26T11:16:01;11.25;;;3.65;;
65182;SDS011;51771;51.068;-1.780;2023-04-26T11:18:30;11.35;;;2.92;;
65182;SDS011;51771;51.068;-1.780;2023-04-26T11:20:55;11.63;;;3.00;;
65182;SDS011;51771;51.068;-1.780;2023-04-26T11:23:21;15.25;;;3.53;;
65182;SDS011;51771;51.068;-1.780;2023-04-26T11:25:47;10.77;;;3.40;;
65182;SDS011;51771;51.068;-1.780;2023-04-26T11:28:12;7.78;;;2.60;;
65182;SDS011;51771;51.068;-1.780;2023-04-26T11:30:37;14.40;;;3.10;;
65182;SDS011;51771;51.068;-1.780;2023-04-26T11:33:03;16.00;;;4.30;;
65182;SDS011;51771;51.068;-1.780;2023-04-26T11:35:29;8.30;;;2.85;;
65182;SDS011;51771;51.068;-1.780;2023-04-26T11:37:57;13.95;;;3.92;;
65182;SDS011;51771;51.068;-1.780;2023-04-26T11:40:23;11.35;;;3.20;;
65182;SDS011;51771;51.068;-1.780;2023-04-26T11:42:51;10.68;;;3.00;;
65182;SDS011;51771;51.068;-1.780;2023-04-26T11:45:16;8.80;;;2.30;;
65182;SDS011;51771;51.068;-1.780;2023-04-26T11:47:41;10.07;;;2.70;;
65182;SDS011;51771;51.068;-1.780;2023-04-26T11:50:07;11.75;;;3.13;;
65182;SDS011;51771;51.068;-1.780;2023-04-26T11:52:35;9.02;;;3.00;;
65182;SDS011;51771;51.068;-1.780;2023-04-26T11:55:01;9.43;;;2.42;;
65182;SDS011;51771;51.068;-1.780;2023-04-26T11:57:30;12.05;;;2.85;;
65182;SDS011;51771;51.068;-1.780;2023-04-26T12:00:07;10.45;;;2.63;;
65182;SDS011;51771;51.068;-1.780;2023-04-26T12:02:34;10.52;;;3.00;;
65182;SDS011;51771;51.068;-1.780;2023-04-26T12:04:59;12.83;;;3.07;;
65182;SDS011;51771;51.068;-1.780;2023-04-26T12:07:25;11.93;;;2.90;;
65182;SDS011;51771;51.068;-1.780;2023-04-26T12:09:51;13.30;;;3.05;;
65182;SDS011;51771;51.068;-1.780;2023-04-26T12:12:16;15.27;;;3.27;;
65182;SDS011;51771;51.068;-1.780;2023-04-26T12:14:42;11.65;;;3.13;;
65182;SDS011;51771;51.068;-1.780;2023-04-26T12:17:07;12.37;;;2.90;;
65182;SDS011;51771;51.068;-1.780;2023-04-26T12:19:35;9.70;;;2.92;;
65182;SDS011;51771;51.068;-1.780;2023-04-26T12:22:01;14.57;;;3.22;;
65182;SDS011;51771;51.068;-1.780;2023-04-26T12:24:27;10.70;;;2.85;;
65182;SDS011;51771;51.068;-1.780;2023-04-26T12:27:01;9.32;;;2.95;;
65182;SDS011;51771;51.068;-1.780;2023-04-26T12:29:30;8.88;;;2.72;;
65182;SDS011;51771;51.068;-1.780;2023-04-26T12:31:59;11.32;;;2.95;;
65182;SDS011;51771;51.068;-1.780;2023-04-26T12:34:25;13.95;;;3.05;;
65182;SDS011;51771;51.068;-1.780;2023-04-26T12:36:50;15.77;;;3.17;;
65182;SDS011;51771;51.068;-1.780;2023-04-26T12:39:15;9.32;;;2.67;;
65182;SDS011;51771;51.068;-1.780;2023-04-26T12:41:40;11.48;;;2.80;;
65182;SDS011;51771;51.068;-1.780;2023-04-26T12:44:09;14.98;;;3.60;;
65182;SDS011;51771;51.068;-1.780;2023-04-26T12:46:35;9.90;;;3.08;;
65182;SDS011;51771;51.068;-1.780;2023-04-26T12:49:00;11.38;;;3.22;;
65182;SDS011;51771;51.068;-1.780;2023-04-26T12:51:26;11.00;;;2.72;;
65182;SDS011;51771;51.068;-1.780;2023-04-26T12:53:51;10.68;;;2.92;;
65182;SDS011;51771;51.068;-1.780;2023-04-26T12:56:17;9.55;;;3.25;;
65182;SDS011;51771;51.068;-1.780;2023-04-26T12:58:42;13.13;;;3.67;;
65182;SDS011;51771;51.068;-1.780;2023-04-26T13:01:08;8.15;;;2.90;;
65182;SDS011;51771;51.068;-1.780;2023-04-26T13:03:33;17.95;;;2.97;;
65182;SDS011;51771;51.068;-1.780;2023-04-26T13:05:58;9.07;;;2.92;;
65182;SDS011;51771;51.068;-1.780;2023-04-26T13:08:24;15.68;;;3.20;;
65182;SDS011;51771;51.068;-1.780;2023-04-26T13:10:49;9.43;;;3.38;;
65182;SDS011;51771;51.068;-1.780;2023-04-26T13:13:15;8.98;;;2.65;;
65182;SDS011;51771;51.068;-1.780;2023-04-26T13:15:40;10.00;;;2.60;;
65182;SDS011;51771;51.068;-1.780;2023-04-26T13:18:05;9.33;;;2.40;;
65182;SDS011;51771;51.068;-1.780;2023-04-26T13:20:30;12.53;;;3.00;;
65182;SDS011;51771;51.068;-1.780;2023-04-26T13:22:56;9.43;;;2.67;;
65182;SDS011;51771;51.068;-1.780;2023-04-26T13:25:21;11.93;;;3.00;;
65182;SDS011;51771;51.068;-1.780;2023-04-26T13:27:47;13.25;;;3.53;;
65182;SDS011;51771;51.068;-1.780;2023-04-26T13:30:12;14.40;;;3.17;;
65182;SDS011;51771;51.068;-1.780;2023-04-26T13:32:38;9.98;;;3.03;;
65182;SDS011;51771;51.068;-1.780;2023-04-26T13:35:03;10.32;;;3.30;;
65182;SDS011;51771;51.068;-1.780;2023-04-26T13:37:29;9.18;;;2.33;;
65182;SDS011;51771;51.068;-1.780;2023-04-26T13:39:54;9.90;;;2.63;;
65182;SDS011;51771;51.068;-1.780;2023-04-26T13:42:19;11.50;;;2.60;;
65182;SDS011;51771;51.068;-1.780;2023-04-26T13:44:45;15.77;;;3.38;;
65182;SDS011;51771;51.068;-1.780;2023-04-26T13:47:10;7.23;;;2.70;;
65182;SDS011;51771;51.068;-1.780;2023-04-26T13:49:35;8.38;;;2.70;;
65182;SDS011;51771;51.068;-1.780;2023-04-26T13:52:01;8.73;;;2.55;;
65182;SDS011;51771;51.068;-1.780;2023-04-26T13:54:26;9.45;;;2.90;;
65182;SDS011;51771;51.068;-1.780;2023-04-26T13:56:52;6.88;;;2.40;;
65182;SDS011;51771;51.068;-1.780;2023-04-26T13:59:17;6.15;;;2.22;;
65182;SDS011;51771;51.068;-1.780;2023-04-26T14:01:43;12.45;;;2.72;;
65182;SDS011;51771;51.068;-1.780;2023-04-26T14:04:08;12.77;;;3.13;;
65182;SDS011;51771;51.068;-1.780;2023-04-26T14:06:34;12.77;;;3.00;;
65182;SDS011;51771;51.068;-1.780;2023-04-26T14:09:00;12.23;;;2.70;;
65182;SDS011;51771;51.068;-1.780;2023-04-26T14:11:25;11.13;;;2.80;;
65182;SDS011;51771;51.068;-1.780;2023-04-26T14:13:51;8.07;;;2.33;;
65182;SDS011;51771;51.068;-1.780;2023-04-26T14:16:20;9.23;;;2.60;;
65182;SDS011;51771;51.068;-1.780;2023-04-26T14:18:45;9.82;;;2.47;;
65182;SDS011;51771;51.068;-1.780;2023-04-26T14:21:11;9.70;;;3.00;;
65182;SDS011;51771;51.068;-1.780;2023-04-26T14:23:37;8.00;;;3.08;;
65182;SDS011;51771;51.068;-1.780;2023-04-26T14:26:02;7.90;;;2.78;;
65182;SDS011;51771;51.068;-1.780;2023-04-26T14:28:28;8.57;;;2.58;;
65182;SDS011;51771;51.068;-1.780;2023-04-26T14:30:53;11.98;;;2.70;;
65182;SDS011;51771;51.068;-1.780;2023-04-26T14:33:18;11.23;;;2.87;;
65182;SDS011;51771;51.068;-1.780;2023-04-26T14:35:43;9.20;;;2.80;;
65182;SDS011;51771;51.068;-1.780;2023-04-26T14:38:09;7.68;;;2.28;;
65182;SDS011;51771;51.068;-1.780;2023-04-26T14:40:34;9.60;;;2.63;;
65182;SDS011;51771;51.068;-1.780;2023-04-26T14:43:00;7.93;;;2.70;;